| time (UTC) | temp C | wind direction | speed KPH | gust KPH | rain 1hr cm | rain 24hr cm | rain mn cm | humidity % | barometer mb |
| 20260508014536 | -17 | 272 | 22.5 | 35.4 | 0.00 | 0.00 | 0.00 | 1013.3 | |
| 20260508013029 | -17 | 267 | 25.7 | 38.6 | 0.00 | 0.00 | 0.00 | 1013.4 | |
| 20260508011526 | -17 | 250 | 22.5 | 40.2 | 0.00 | 0.00 | 0.00 | 1013.6 | |
| 20260508010009 | -17 | 266 | 30.6 | 43.5 | 0.00 | 0.00 | 0.00 | 1013.4 | |
| 20260508004504 | -17 | 266 | 24.1 | 37.0 | 0.00 | 0.00 | 0.00 | 1013.7 | |
| 20260508003059 | -17 | 231 | 17.7 | 33.8 | 0.00 | 0.00 | 0.00 | 1013.8 | |
| 20260508001613 | -17 | 216 | 22.5 | 38.6 | 0.00 | 0.00 | 0.00 | 1013.9 | |
| 20260508000049 | -17 | 274 | 20.9 | 29.0 | 0.00 | 0.00 | 0.00 | 1013.9 | |
| 20260507234547 | -17 | 226 | 17.7 | 29.0 | 0.00 | 0.00 | 0.00 | 1013.7 | |
| 20260507233041 | -17 | 250 | 19.3 | 38.6 | 0.00 | 0.00 | 0.00 | 1013.8 | |
| 20260507231537 | -17 | 272 | 27.4 | 38.6 | 0.00 | 0.00 | 0.00 | 1013.8 | |
| 20260507230014 | -17 | 262 | 22.5 | 0.0 | 0.00 | 0.00 | 0.00 | 1013.9 | |
| 20260507224510 | -17 | 264 | 20.9 | 35.4 | 0.00 | 0.00 | 0.00 | 1014.0 | |
| 20260507223048 | -17 | 241 | 19.3 | 33.8 | 0.00 | 0.00 | 0.00 | 1014.1 | |
| 20260507221544 | -17 | 267 | 19.3 | 33.8 | 0.00 | 0.00 | 0.00 | 1014.2 | |
| 20260507220037 | -17 | 248 | 17.7 | 33.8 | 0.00 | 0.00 | 0.00 | 1014.5 | |
| 20260507214518 | -17 | 245 | 14.5 | 25.7 | 0.00 | 0.00 | 0.00 | 1014.6 | |
| 20260507213016 | -17 | 248 | 12.9 | 25.7 | 0.00 | 0.00 | 0.00 | 1014.7 | |
| 20260507211511 | -17 | 256 | 17.7 | 27.4 | 0.00 | 0.00 | 0.00 | 1014.7 | |
| 20260507210007 | -17 | 259 | 14.5 | 25.7 | 0.00 | 0.00 | 0.00 | 1014.8 | |
| 20260507204506 | -17 | 250 | 19.3 | 30.6 | 0.00 | 0.00 | 0.00 | 1014.9 | |
| 20260507203007 | -17 | 258 | 19.3 | 29.0 | 0.00 | 0.00 | 0.00 | 1015.1 | |
| 20260507201600 | -17 | 257 | 11.3 | 24.1 | 0.00 | 0.00 | 0.00 | 1015.2 | |
| 20260507200042 | -17 | 253 | 12.9 | 25.7 | 0.00 | 0.00 | 0.00 | 1015.4 | |
| 20260507194543 | -17 | 262 | 9.7 | 22.5 | 0.00 | 0.00 | 0.00 | 1015.5 | |
| 20260507193040 | -17 | 259 | 12.9 | 19.3 | 0.00 | 0.00 | 0.00 | 1015.6 | |
| 20260507191540 | -17 | 252 | 8.0 | 22.5 | 0.00 | 0.00 | 0.00 | 1015.7 | |
| 20260507190039 | -17 | 250 | 14.5 | 22.5 | 0.00 | 0.00 | 0.00 | 1015.6 | |
| 20260507184539 | -17 | 219 | 11.3 | 20.9 | 0.00 | 0.00 | 0.00 | 1015.9 | |
| 20260507183038 | -17 | 223 | 12.9 | 25.7 | 0.00 | 0.00 | 0.00 | 1015.9 | |
| 20260507181537 | -17 | 257 | 11.3 | 25.7 | 0.00 | 0.00 | 0.00 | 1016.0 | |
| 20260507180025 | -17 | 265 | 12.9 | 24.1 | 0.00 | 0.00 | 0.00 | 1016.2 | |
| 20260507174535 | -17 | 258 | 12.9 | 30.6 | 0.00 | 0.00 | 0.00 | 1016.1 | |
| 20260507173027 | -17 | 259 | 16.1 | 29.0 | 0.00 | 0.00 | 0.00 | 1016.1 | |
| 20260507171518 | -17 | 250 | 12.9 | 27.4 | 0.00 | 0.00 | 0.00 | 1016.1 | |
| 20260507170012 | -17 | 251 | 17.7 | 27.4 | 0.00 | 0.00 | 0.00 | 1015.9 | |
| 20260507164509 | -17 | 240 | 16.1 | 25.7 | 0.00 | 0.00 | 0.00 | 1016.2 | |
| 20260507163005 | -17 | 264 | 14.5 | 30.6 | 0.00 | 0.00 | 0.00 | 1016.3 | |
| 20260507161601 | -17 | 255 | 12.9 | 27.4 | 0.00 | 0.00 | 0.00 | 1016.4 | |
| 20260507160042 | -17 | 223 | 19.3 | 33.8 | 0.00 | 0.00 | 0.00 | 1016.0 | |
| 20260507154539 | -17 | 250 | 20.9 | 33.8 | 0.00 | 0.00 | 0.00 | 1016.2 | |
| 20260507153023 | -17 | 221 | 19.3 | 30.6 | 0.00 | 0.00 | 0.00 | 1016.2 | |
| 20260507151518 | -17 | 0.0 | 0.0 | 0.00 | 0.00 | 0.00 | 1016.2 | ||
| 20260507150015 | -17 | 0.0 | 0.0 | 0.00 | 0.00 | 0.00 | 1016.1 | ||
| 20260507144511 | -17 | 0.0 | 0.0 | 0.00 | 0.00 | 0.00 | 1016.1 | ||
| 20260507143004 | -17 | 0.0 | 0.0 | 0.00 | 0.00 | 0.00 | 1016.1 | ||
| 20260507141600 | -17 | 0.0 | 0.0 | 0.00 | 0.00 | 0.00 | 1016.2 | ||
| 20260507140058 | -17 | 0.0 | 0.0 | 0.00 | 0.00 | 0.00 | 1016.2 | ||
| 20260507134554 | -17 | 0.0 | 0.0 | 0.00 | 0.00 | 0.00 | 1016.1 | ||
| 20260507133048 | -17 | 0.0 | 0.0 | 0.00 | 0.00 | 0.00 | 1016.0 | ||
| 20260507131534 | -17 | 0.0 | 0.0 | 0.00 | 0.00 | 0.00 | 1015.7 | ||
| 20260507130021 | -17 | 0.0 | 0.0 | 0.00 | 0.00 | 0.00 | 1015.6 | ||
| 20260507124559 | -17 | 0.0 | 0.0 | 0.00 | 0.00 | 0.00 | 1015.6 | ||
| 20260507123056 | -17 | 0.0 | 0.0 | 0.00 | 0.00 | 0.00 | 1015.7 | ||
| 20260507121539 | -17 | 0.0 | 0.0 | 0.00 | 0.00 | 0.00 | 1016.0 | ||
| 20260507120040 | -17 | 0.0 | 0.0 | 0.00 | 0.00 | 0.00 | 1015.8 | ||
| 20260507114528 | -17 | 0.0 | 0.0 | 0.00 | 0.00 | 0.00 | 1015.7 | ||
| 20260507113024 | -17 | 0.0 | 0.0 | 0.00 | 0.00 | 0.00 | 1015.2 | ||
| 20260507111520 | -17 | 0.0 | 0.0 | 0.00 | 0.00 | 0.00 | 1015.0 | ||
| 20260507110016 | -17 | 0.0 | 0.0 | 0.00 | 0.00 | 0.00 | 1014.8 | ||
| 20260507104512 | -17 | 0.0 | 0.0 | 0.00 | 0.00 | 0.00 | 1014.8 | ||
| 20260507103007 | -17 | 0.0 | 0.0 | 0.00 | 0.00 | 0.00 | 1014.5 | ||
| 20260507101557 | -17 | 0.0 | 0.0 | 0.00 | 0.00 | 0.00 | 1014.4 | ||
| 20260507100046 | -17 | 0.0 | 0.0 | 0.00 | 0.00 | 0.00 | 1014.5 | ||
| 20260507094541 | -17 | 0.0 | 0.0 | 0.00 | 0.00 | 0.00 | 1014.5 | ||
| 20260507093037 | -17 | 257 | 37.0 | 54.7 | 0.00 | 0.00 | 0.00 | 1014.5 | |
| 20260507091532 | -17 | 289 | 37.0 | 49.9 | 0.00 | 0.00 | 0.00 | 1014.4 | |
| 20260507090027 | -17 | 271 | 37.0 | 49.9 | 0.00 | 0.00 | 0.00 | 1014.7 | |
| 20260507084522 | -17 | 263 | 35.4 | 46.7 | 0.00 | 0.00 | 0.00 | 1014.9 | |
| 20260507083018 | -17 | 261 | 30.6 | 45.1 | 0.00 | 0.00 | 0.00 | 1014.9 | |
| 20260507081501 | -17 | 278 | 30.6 | 46.7 | 0.00 | 0.00 | 0.00 | 1014.9 | |
| 20260507074607 | -17 | 269 | 30.6 | 45.1 | 0.00 | 0.00 | 0.00 | 1015.0 | |
| 20260507073049 | -17 | 258 | 32.2 | 48.3 | 0.00 | 0.00 | 0.00 | 1015.0 | |
| 20260507071544 | -17 | 261 | 37.0 | 0.0 | 0.00 | 0.00 | 0.00 | 1014.8 | |
| 20260507070041 | -17 | 266 | 32.2 | 43.5 | 0.00 | 0.00 | 0.00 | 1015.0 | |
| 20260507064535 | -17 | 249 | 30.6 | 43.5 | 0.00 | 0.00 | 0.00 | 1015.2 | |
| 20260507063031 | -17 | 263 | 29.0 | 40.2 | 0.00 | 0.00 | 0.00 | 1015.5 | |
| 20260507061509 | -17 | 272 | 29.0 | 43.5 | 0.00 | 0.00 | 0.00 | 1015.6 | |
| 20260507060004 | -17 | 248 | 30.6 | 43.5 | 0.00 | 0.00 | 0.00 | 1015.6 | |
| 20260507054621 | -17 | 264 | 29.0 | 40.2 | 0.00 | 0.00 | 0.00 | 1015.8 | |
| 20260507053049 | -17 | 256 | 25.7 | 37.0 | 0.00 | 0.00 | 0.00 | 1016.0 | |
| 20260507051539 | -17 | 260 | 22.5 | 32.2 | 0.00 | 0.00 | 0.00 | 1016.2 | |
| 20260507050034 | -17 | 230 | 20.9 | 30.6 | 0.00 | 0.00 | 0.00 | 1016.3 | |
| 20260507044530 | -17 | 261 | 19.3 | 30.6 | 0.00 | 0.00 | 0.00 | 1016.2 | |
| 20260507043025 | -17 | 261 | 17.7 | 35.4 | 0.00 | 0.00 | 0.00 | 1016.1 | |
| 20260507041519 | -17 | 254 | 22.5 | 40.2 | 0.00 | 0.00 | 0.00 | 1016.1 | |
| 20260507040015 | -17 | 248 | 20.9 | 37.0 | 0.00 | 0.00 | 0.00 | 1015.8 | |
| 20260507034602 | -17 | 263 | 22.5 | 38.6 | 0.00 | 0.00 | 0.00 | 1015.7 | |
| 20260507033104 | -17 | 258 | 20.9 | 35.4 | 0.00 | 0.00 | 0.00 | 1015.6 | |
| 20260507031604 | -17 | 264 | 20.9 | 37.0 | 0.00 | 0.00 | 0.00 | 1015.5 | |
| 20260507030054 | -17 | 259 | 19.3 | 38.6 | 0.00 | 0.00 | 0.00 | 1015.5 | |
| 20260507024547 | -17 | 259 | 17.7 | 37.0 | 0.00 | 0.00 | 0.00 | 1015.5 | |
| 20260507023054 | -17 | 230 | 20.9 | 37.0 | 0.00 | 0.00 | 0.00 | 1015.5 | |
| 20260507021546 | -17 | 257 | 20.9 | 33.8 | 0.00 | 0.00 | 0.00 | 1015.2 | |
| 20260507020048 | -17 | 264 | 20.9 | 38.6 | 0.00 | 0.00 | 0.00 | 1015.2 |